Time;durP1;ratioP1;P1;durP2;ratioP2;P2;SDS_P1;SDS_P2;PMS_P1;PMS_P2;Temp;Humidity;BMP_temperature;BMP_pressure;BME280_temperature;BME280_humidity;BME280_pressure;Samples;Min_cycle;Max_cycle;Signal;HPM_P1;HPM_P2
2020/12/14 00:00:34;;;;;;;4.63;1.30;;;9.50;99.90;;;;;;4993093;28;20256;-81
2020/12/14 00:03:01;;;;;;;6.07;1.30;;;9.50;99.90;;;;;;4992574;28;20216;-81
2020/12/14 00:05:27;;;;;;;3.17;1.60;;;9.50;99.90;;;;;;4992683;28;20209;-80
2020/12/14 00:07:54;;;;;;;2.33;1.13;;;9.40;99.90;;;;;;4993037;28;20216;-80
2020/12/14 00:10:21;;;;;;;3.50;1.50;;;9.40;99.90;;;;;;4992356;28;20216;-81
2020/12/14 00:12:47;;;;;;;4.00;1.13;;;9.40;99.90;;;;;;4992963;28;20637;-81
2020/12/14 00:15:13;;;;;;;2.37;1.00;;;9.30;99.90;;;;;;4992253;28;20318;-80
2020/12/14 00:17:41;;;;;;;2.80;1.10;;;9.20;99.90;;;;;;4992649;28;20232;-80
2020/12/14 00:20:08;;;;;;;3.53;2.07;;;9.20;99.90;;;;;;4991817;28;20667;-80
2020/12/14 00:22:35;;;;;;;2.60;1.20;;;9.30;99.90;;;;;;4991936;28;20271;-79
2020/12/14 00:25:02;;;;;;;6.47;1.50;;;9.20;99.90;;;;;;4992104;28;20204;-80
2020/12/14 00:27:28;;;;;;;4.63;1.37;;;9.20;99.90;;;;;;4992129;28;20213;-80
2020/12/14 00:29:55;;;;;;;2.40;1.20;;;9.30;99.90;;;;;;4992565;28;20255;-80
2020/12/14 00:32:23;;;;;;;3.63;0.93;;;9.10;99.90;;;;;;4992180;28;20216;-78
2020/12/14 00:34:50;;;;;;;5.67;1.43;;;9.20;99.90;;;;;;4992321;28;20213;-78
2020/12/14 00:37:17;;;;;;;3.23;1.00;;;9.10;99.90;;;;;;4992122;28;20240;-78
2020/12/14 00:39:43;;;;;;;4.20;0.93;;;9.10;99.90;;;;;;4992154;28;20204;-78
2020/12/14 00:42:10;;;;;;;6.40;1.20;;;9.30;99.90;;;;;;4991816;28;20217;-78
2020/12/14 00:44:36;;;;;;;3.43;1.60;;;9.40;99.90;;;;;;4991643;28;20704;-79
2020/12/14 00:47:03;;;;;;;2.40;1.23;;;9.20;99.90;;;;;;4991337;28;20217;-79
2020/12/14 00:49:29;;;;;;;4.83;1.10;;;9.30;99.90;;;;;;4991708;28;20766;-78
2020/12/14 00:51:57;;;;;;;3.20;1.27;;;9.30;99.90;;;;;;4991473;28;20255;-78
2020/12/14 00:54:24;;;;;;;3.93;1.40;;;9.10;99.90;;;;;;4991433;28;20213;-78
2020/12/14 00:56:52;;;;;;;3.67;1.20;;;9.20;99.90;;;;;;4991860;28;20754;-79
2020/12/14 00:59:18;;;;;;;3.87;1.50;;;9.30;99.90;;;;;;4991557;28;20588;-78
2020/12/14 01:01:45;;;;;;;5.20;1.57;;;9.30;99.90;;;;;;4991586;28;20293;-80
2020/12/14 01:04:11;;;;;;;3.17;1.03;;;9.30;99.90;;;;;;4991659;28;20263;-80
2020/12/14 01:06:37;;;;;;;4.23;0.80;;;9.30;99.90;;;;;;4991626;28;20209;-79
2020/12/14 01:09:05;;;;;;;4.33;1.30;;;9.20;99.90;;;;;;4991250;28;20279;-79
2020/12/14 01:11:31;;;;;;;3.17;1.73;;;9.20;99.90;;;;;;4991477;28;20259;-79
2020/12/14 01:13:58;;;;;;;2.00;0.97;;;9.30;99.90;;;;;;4989554;28;20209;-81
2020/12/14 01:16:25;;;;;;;1.70;0.87;;;9.20;99.90;;;;;;4991537;28;20208;-80
2020/12/14 01:18:51;;;;;;;2.83;0.73;;;9.30;99.90;;;;;;4991561;28;20240;-82
2020/12/14 01:21:21;;;;;;;2.03;1.00;;;9.20;99.90;;;;;;4991691;28;20611;-79
2020/12/14 01:23:47;;;;;;;4.70;1.43;;;9.50;99.90;;;;;;4991161;28;20645;-80
2020/12/14 01:26:15;;;;;;;10.47;3.03;;;9.40;99.90;;;;;;4991229;28;20205;-79
2020/12/14 01:28:41;;;;;;;7.47;1.53;;;9.30;99.90;;;;;;4991283;28;20692;-81
2020/12/14 01:31:08;;;;;;;3.63;1.50;;;9.30;99.90;;;;;;4990930;28;20275;-80
2020/12/14 01:33:34;;;;;;;3.80;0.90;;;9.30;99.90;;;;;;4991506;28;20258;-80
2020/12/14 01:36:01;;;;;;;1.00;0.93;;;9.60;99.90;;;;;;4990690;28;20582;-80
2020/12/14 01:38:27;;;;;;;7.03;2.23;;;9.60;99.90;;;;;;4990998;28;20267;-80
2020/12/14 01:40:54;;;;;;;5.20;1.53;;;9.50;99.90;;;;;;4991186;28;20208;-79
2020/12/14 01:43:22;;;;;;;5.23;1.30;;;9.50;99.90;;;;;;4991501;28;20240;-77
2020/12/14 01:45:49;;;;;;;5.93;1.30;;;9.40;99.90;;;;;;4991395;28;20209;-78
2020/12/14 01:48:16;;;;;;;3.20;0.97;;;9.60;99.90;;;;;;4990991;28;20208;-78
2020/12/14 01:50:42;;;;;;;4.40;1.23;;;9.70;99.90;;;;;;4991298;28;20220;-77
2020/12/14 01:53:11;;;;;;;3.27;1.27;;;9.70;99.90;;;;;;4990469;28;20201;-78
2020/12/14 01:55:40;;;;;;;1.27;0.80;;;9.60;99.90;;;;;;4991224;28;20260;-77
2020/12/14 01:58:07;;;;;;;3.97;1.50;;;9.50;99.90;;;;;;4989984;28;20663;-76
2020/12/14 02:00:34;;;;;;;5.20;1.43;;;9.50;99.90;;;;;;4991193;28;20259;-77
2020/12/14 02:03:01;;;;;;;3.07;1.00;;;9.20;99.90;;;;;;4990726;28;20685;-78
2020/12/14 02:05:27;;;;;;;4.13;1.43;;;9.10;99.90;;;;;;4990687;28;20236;-78
2020/12/14 02:07:54;;;;;;;5.77;1.93;;;9.10;99.90;;;;;;4990850;28;20213;-78
2020/12/14 02:10:20;;;;;;;3.37;1.47;;;9.20;99.90;;;;;;4994042;28;20267;-78
2020/12/14 02:12:47;;;;;;;1.60;0.80;;;9.30;99.90;;;;;;4995366;28;20213;-79
2020/12/14 02:15:14;;;;;;;2.87;0.80;;;9.30;99.90;;;;;;4994183;28;20213;-79
2020/12/14 02:17:41;;;;;;;2.87;1.00;;;9.20;99.90;;;;;;4994612;28;20229;-78
2020/12/14 02:20:08;;;;;;;1.90;0.90;;;9.30;99.90;;;;;;4994544;28;20567;-80
2020/12/14 02:22:35;;;;;;;3.50;1.50;;;9.50;99.90;;;;;;4994055;28;20633;-79
2020/12/14 02:25:04;;;;;;;2.47;1.23;;;9.40;99.90;;;;;;4994015;28;20588;-78
2020/12/14 02:27:32;;;;;;;2.50;0.90;;;9.50;99.90;;;;;;4994652;28;20278;-78
2020/12/14 02:29:59;;;;;;;14.97;1.50;;;9.40;99.90;;;;;;4994389;28;20676;-78
2020/12/14 02:32:27;;;;;;;2.30;0.80;;;9.30;99.90;;;;;;4994537;28;20294;-76
2020/12/14 02:34:54;;;;;;;1.73;0.80;;;9.50;99.90;;;;;;4994243;28;20252;-78
2020/12/14 02:37:23;;;;;;;6.00;2.20;;;9.50;99.90;;;;;;4994261;28;20229;-76
2020/12/14 02:39:49;;;;;;;9.03;1.50;;;9.40;99.90;;;;;;4994583;28;20209;-78
2020/12/14 02:42:18;;;;;;;2.33;1.10;;;9.50;99.90;;;;;;4993839;28;20217;-76
2020/12/14 02:44:45;;;;;;;3.83;1.30;;;9.40;99.90;;;;;;4994323;28;20209;-78
2020/12/14 02:47:11;;;;;;;1.80;0.87;;;9.30;99.90;;;;;;4994046;28;20295;-76
2020/12/14 02:49:39;;;;;;;4.53;1.20;;;9.30;99.90;;;;;;4993573;28;20216;-78
2020/12/14 02:52:07;;;;;;;1.70;0.90;;;9.10;99.90;;;;;;4993852;28;20239;-78
2020/12/14 02:54:34;;;;;;;4.80;1.37;;;9.20;99.90;;;;;;4993732;28;20259;-77
2020/12/14 02:57:00;;;;;;;2.37;1.10;;;9.20;99.90;;;;;;4993618;28;20263;-77
2020/12/14 02:59:28;;;;;;;4.67;1.70;;;9.30;99.90;;;;;;4994018;28;20688;-77
2020/12/14 03:01:55;;;;;;;5.37;1.40;;;9.30;99.90;;;;;;4993833;28;20622;-77
2020/12/14 03:04:21;;;;;;;2.30;1.30;;;9.30;99.90;;;;;;4994112;28;20639;-78
2020/12/14 03:06:50;;;;;;;5.37;1.40;;;9.40;99.90;;;;;;4993931;28;20263;-77
2020/12/14 03:09:17;;;;;;;2.70;1.57;;;9.30;99.90;;;;;;4993734;28;20259;-77
2020/12/14 03:11:45;;;;;;;5.93;1.50;;;9.10;99.90;;;;;;4993425;28;20213;-77
2020/12/14 03:14:11;;;;;;;3.33;1.20;;;9.00;99.90;;;;;;4993640;28;20205;-78
2020/12/14 03:16:43;;;;;;;2.10;1.27;;;8.90;99.90;;;;;;4993557;28;20216;-78
2020/12/14 03:19:09;;;;;;;2.23;1.23;;;9.00;99.90;;;;;;4991322;28;20311;-78
2020/12/14 03:21:36;;;;;;;2.07;0.83;;;9.00;99.90;;;;;;4992573;28;20213;-78
2020/12/14 03:24:03;;;;;;;3.77;0.97;;;9.00;99.90;;;;;;4992795;28;20217;-78
2020/12/14 03:26:30;;;;;;;2.03;1.30;;;9.10;99.90;;;;;;4993635;28;20205;-77
2020/12/14 03:28:57;;;;;;;5.17;1.37;;;9.20;99.90;;;;;;4992882;28;20236;-78
2020/12/14 03:31:23;;;;;;;4.77;1.30;;;9.10;99.90;;;;;;4993440;28;20205;-78
2020/12/14 03:33:52;;;;;;;4.77;1.23;;;9.00;99.90;;;;;;4993048;28;20232;-77
2020/12/14 03:36:20;;;;;;;4.80;1.03;;;9.20;99.90;;;;;;4993326;28;20204;-78
2020/12/14 03:38:47;;;;;;;4.37;1.30;;;9.10;99.90;;;;;;4993463;28;20241;-77
2020/12/14 03:41:14;;;;;;;5.73;1.47;;;9.20;99.90;;;;;;4991249;28;20215;-78
2020/12/14 03:43:40;;;;;;;3.97;1.90;;;9.20;99.90;;;;;;4992929;28;20669;-78
2020/12/14 03:46:14;;;;;;;3.60;0.90;;;9.50;99.90;;;;;;4992564;28;20213;-77
2020/12/14 03:48:40;;;;;;;4.20;1.10;;;9.40;99.90;;;;;;4992575;28;20680;-78
2020/12/14 03:51:09;;;;;;;5.67;2.23;;;9.30;99.90;;;;;;4992990;28;20209;-78
2020/12/14 03:53:35;;;;;;;3.20;1.23;;;9.20;99.90;;;;;;4992978;28;20750;-79
2020/12/14 03:56:02;;;;;;;6.03;1.57;;;9.40;99.90;;;;;;4992890;28;20259;-79
2020/12/14 03:58:29;;;;;;;2.77;1.23;;;9.40;99.90;;;;;;4992571;28;20271;-77
2020/12/14 04:00:55;;;;;;;6.97;1.80;;;9.50;99.90;;;;;;4992851;28;20209;-78
2020/12/14 04:03:23;;;;;;;3.77;1.67;;;9.40;99.90;;;;;;4992283;28;20209;-76
2020/12/14 04:05:50;;;;;;;3.90;1.10;;;9.50;99.90;;;;;;4993302;28;20209;-78
2020/12/14 04:08:17;;;;;;;2.20;1.27;;;9.40;99.90;;;;;;4992055;28;20691;-79
2020/12/14 04:10:44;;;;;;;2.53;1.30;;;9.30;99.90;;;;;;4992796;28;20236;-79
2020/12/14 04:13:11;;;;;;;3.73;1.53;;;9.40;99.90;;;;;;4992201;28;20278;-77
2020/12/14 04:15:38;;;;;;;4.90;1.20;;;9.30;99.90;;;;;;4992369;28;20267;-78
2020/12/14 04:18:04;;;;;;;3.90;1.80;;;9.30;99.90;;;;;;4992251;28;20286;-80
2020/12/14 04:20:31;;;;;;;2.53;1.80;;;9.30;99.90;;;;;;4992535;28;20635;-78
2020/12/14 04:22:57;;;;;;;3.53;2.17;;;9.30;99.90;;;;;;4991995;28;20576;-77
2020/12/14 04:25:25;;;;;;;6.50;1.57;;;9.20;99.90;;;;;;4992252;28;20723;-77
2020/12/14 04:27:52;;;;;;;6.13;1.60;;;9.30;99.90;;;;;;4992980;28;20213;-79
2020/12/14 04:30:19;;;;;;;4.23;1.50;;;9.10;99.90;;;;;;4993692;28;20304;-79
2020/12/14 04:32:46;;;;;;;4.30;1.73;;;9.10;99.90;;;;;;4992147;28;20264;-79
2020/12/14 04:35:13;;;;;;;7.70;2.23;;;9.10;99.90;;;;;;4992134;28;20291;-78
2020/12/14 04:37:40;;;;;;;2.77;1.13;;;9.10;99.90;;;;;;4991935;28;20291;-78
2020/12/14 04:40:06;;;;;;;5.53;2.30;;;9.10;99.90;;;;;;4991816;28;20209;-78
2020/12/14 04:42:35;;;;;;;5.17;1.40;;;9.10;99.90;;;;;;4992002;28;20212;-78
2020/12/14 04:45:02;;;;;;;1.03;0.83;;;9.20;99.90;;;;;;4991634;28;20212;-79
2020/12/14 04:47:29;;;;;;;5.57;1.50;;;9.20;99.90;;;;;;4991645;28;20217;-78
2020/12/14 04:49:56;;;;;;;4.43;1.80;;;9.10;99.90;;;;;;4992035;28;20271;-78
2020/12/14 04:52:24;;;;;;;4.10;1.73;;;9.20;99.90;;;;;;4992162;28;20208;-77
2020/12/14 04:54:50;;;;;;;6.17;1.70;;;9.00;99.90;;;;;;4992056;28;20295;-78
2020/12/14 04:57:21;;;;;;;5.50;2.13;;;9.00;99.90;;;;;;4991347;28;20209;-77
2020/12/14 04:59:50;;;;;;;6.03;2.00;;;9.00;99.90;;;;;;4991778;28;20216;-78
2020/12/14 05:02:17;;;;;;;3.13;1.93;;;9.10;99.90;;;;;;4991983;28;20267;-78
2020/12/14 05:04:44;;;;;;;4.10;1.60;;;9.00;99.90;;;;;;4991673;28;20208;-78
2020/12/14 05:07:12;;;;;;;3.20;1.73;;;9.10;99.90;;;;;;4991481;28;20209;-78
2020/12/14 05:09:41;;;;;;;5.23;2.07;;;9.00;99.90;;;;;;4991216;28;20688;-78
2020/12/14 05:12:18;;;;;;;3.93;1.43;;;8.90;99.90;;;;;;4991780;28;20208;-78
2020/12/14 05:14:45;;;;;;;3.10;1.40;;;9.10;99.90;;;;;;4991328;28;20299;-79
2020/12/14 05:17:25;;;;;;;3.33;1.17;;;8.90;99.90;;;;;;4991107;28;20292;-79
2020/12/14 05:19:53;;;;;;;5.43;2.10;;;8.90;99.90;;;;;;4991516;28;20204;-79
2020/12/14 05:22:19;;;;;;;4.40;1.63;;;8.80;99.90;;;;;;4991077;28;20212;-78
2020/12/14 05:24:50;;;;;;;9.73;1.57;;;8.80;99.90;;;;;;4991621;28;20209;-78
2020/12/14 05:27:32;;;;;;;3.17;1.63;;;8.80;99.90;;;;;;4990974;28;20267;-78
2020/12/14 05:29:58;;;;;;;3.13;1.60;;;8.80;99.90;;;;;;4990815;28;20263;-77
2020/12/14 05:32:26;;;;;;;8.20;2.10;;;8.70;99.90;;;;;;4977683;28;20205;-79
2020/12/14 05:34:53;;;;;;;2.83;1.73;;;8.70;99.90;;;;;;4991314;28;20240;-78
2020/12/14 05:37:20;;;;;;;2.67;1.73;;;8.60;99.90;;;;;;4990801;28;20668;-77
2020/12/14 05:39:46;;;;;;;2.33;1.50;;;8.60;99.90;;;;;;4991330;28;20209;-78
2020/12/14 05:42:15;;;;;;;4.43;1.67;;;8.60;99.90;;;;;;4990875;28;20567;-79
2020/12/14 05:44:43;;;;;;;12.73;1.87;;;8.60;99.90;;;;;;4990385;28;20649;-78
2020/12/14 05:47:24;;;;;;;3.67;1.47;;;8.60;99.90;;;;;;4990640;28;20212;-78
2020/12/14 05:49:52;;;;;;;5.17;2.37;;;8.40;99.90;;;;;;4991426;28;20262;-78
2020/12/14 05:52:20;;;;;;;5.13;1.90;;;8.40;99.90;;;;;;4991207;28;20212;-77
2020/12/14 05:54:52;;;;;;;4.93;1.97;;;8.50;99.90;;;;;;4991118;28;20251;-78
2020/12/14 05:57:29;;;;;;;7.27;2.27;;;8.60;99.90;;;;;;4990822;28;20256;-78
2020/12/14 06:00:00;;;;;;;3.17;1.90;;;8.50;99.90;;;;;;4990511;28;20211;-78
2020/12/14 06:02:26;;;;;;;3.40;1.70;;;8.70;99.90;;;;;;4991139;28;20208;-78
2020/12/14 06:04:58;;;;;;;7.47;2.10;;;8.60;99.90;;;;;;4990656;28;20204;-77
2020/12/14 06:07:26;;;;;;;4.37;1.90;;;8.60;99.90;;;;;;4991143;28;20255;-78
2020/12/14 06:10:13;;;;;;;5.53;2.33;;;8.60;99.90;;;;;;4990663;28;20209;-77
2020/12/14 06:12:42;;;;;;;6.00;3.27;;;8.50;99.90;;;;;;4990649;28;20727;-77
2020/12/14 06:15:10;;;;;;;5.43;2.27;;;8.50;99.90;;;;;;4990334;28;20209;-75
2020/12/14 06:17:37;;;;;;;5.27;2.23;;;8.50;99.90;;;;;;4990949;28;20318;-77
2020/12/14 06:20:10;;;;;;;7.17;2.80;;;8.60;99.90;;;;;;4990271;28;20240;-77
2020/12/14 06:22:40;;;;;;;4.90;2.50;;;8.50;99.90;;;;;;4990855;28;20270;-78
2020/12/14 06:25:07;;;;;;;7.10;2.60;;;8.30;99.90;;;;;;4990506;28;20259;-77
2020/12/14 06:27:33;;;;;;;3.90;2.80;;;8.30;99.90;;;;;;4990941;28;20201;-77
2020/12/14 06:30:00;;;;;;;3.00;2.03;;;8.50;99.90;;;;;;4990258;28;20213;-75
2020/12/14 06:32:40;;;;;;;9.10;3.37;;;8.50;99.90;;;;;;4991147;28;20205;-76
2020/12/14 06:35:14;;;;;;;5.73;3.10;;;8.70;99.90;;;;;;4990311;28;20283;-76
2020/12/14 06:37:51;;;;;;;5.93;3.27;;;8.90;99.90;;;;;;4990422;28;20232;-75
2020/12/14 06:40:18;;;;;;;5.87;2.73;;;8.70;99.90;;;;;;4989014;28;20278;-76
2020/12/14 06:42:46;;;;;;;5.73;2.40;;;8.70;99.90;;;;;;4987355;28;20209;-75
2020/12/14 06:45:14;;;;;;;5.83;3.47;;;8.60;99.90;;;;;;4988594;28;20753;-77
2020/12/14 06:47:46;;;;;;;5.27;2.93;;;8.70;99.90;;;;;;4989545;28;20631;-77
2020/12/14 06:50:30;;;;;;;7.97;2.90;;;8.60;99.90;;;;;;4990138;28;20235;-77
2020/12/14 06:52:58;;;;;;;9.97;3.93;;;8.70;99.90;;;;;;4990140;28;20232;-76
2020/12/14 06:55:44;;;;;;;7.43;4.60;;;8.80;99.90;;;;;;4992368;28;20255;-76
2020/12/14 06:58:12;;;;;;;4.17;2.73;;;8.90;99.90;;;;;;4993204;28;20229;-76
2020/12/14 07:00:38;;;;;;;4.77;2.90;;;9.10;99.90;;;;;;4994261;28;20279;-76
2020/12/14 07:03:05;;;;;;;9.83;2.90;;;8.90;99.90;;;;;;4993547;28;20204;-76
2020/12/14 07:05:35;;;;;;;5.80;3.13;;;8.90;99.90;;;;;;4994067;28;20633;-75
2020/12/14 07:08:03;;;;;;;8.47;2.93;;;9.00;99.90;;;;;;4993618;28;20211;-77
2020/12/14 07:10:31;;;;;;;4.30;3.00;;;9.20;99.90;;;;;;4992479;28;20205;-76
2020/12/14 07:12:58;;;;;;;5.33;3.00;;;9.10;99.90;;;;;;4993560;28;20243;-77
2020/12/14 07:15:27;;;;;;;4.60;2.83;;;9.20;99.90;;;;;;4980247;28;20200;-81
2020/12/14 07:18:05;;;;;;;5.50;2.50;;;9.50;99.90;;;;;;4993235;28;20616;-77
2020/12/14 07:20:33;;;;;;;8.53;3.77;;;9.50;99.90;;;;;;4980187;28;20208;-80
2020/12/14 07:23:08;;;;;;;6.07;2.40;;;9.50;99.90;;;;;;4993167;28;20252;-77
2020/12/14 07:25:35;;;;;;;7.43;2.13;;;9.50;99.90;;;;;;4993426;28;20204;-77
2020/12/14 07:28:03;;;;;;;8.20;2.27;;;9.60;99.90;;;;;;4993289;28;20303;-79
2020/12/14 07:30:29;;;;;;;9.40;2.57;;;9.70;99.90;;;;;;4992155;28;20200;-77
2020/12/14 07:32:56;;;;;;;8.47;2.03;;;9.70;99.90;;;;;;4984444;28;20205;-77
2020/12/14 07:35:22;;;;;;;5.60;2.50;;;9.70;99.90;;;;;;4989924;28;20202;-78
2020/12/14 07:37:49;;;;;;;8.87;3.23;;;9.70;99.90;;;;;;4993532;28;20229;-78
2020/12/14 07:40:16;;;;;;;7.50;1.97;;;9.70;99.90;;;;;;4991632;28;21085;-77
2020/12/14 07:42:44;;;;;;;2.43;1.80;;;9.80;99.90;;;;;;4993335;28;20221;-77
2020/12/14 07:45:12;;;;;;;6.30;3.17;;;9.80;99.90;;;;;;4992399;28;20707;-75
2020/12/14 07:47:39;;;;;;;6.10;2.23;;;9.90;99.90;;;;;;4991589;28;20213;-76
2020/12/14 07:50:10;;;;;;;7.70;1.70;;;9.90;99.90;;;;;;4988277;28;20205;-75
2020/12/14 07:52:37;;;;;;;4.10;1.30;;;9.90;99.90;;;;;;4992035;28;21824;-76
2020/12/14 07:55:06;;;;;;;7.27;2.30;;;9.90;99.90;;;;;;4992167;28;20263;-75
2020/12/14 07:57:37;;;;;;;6.77;2.17;;;10.00;99.90;;;;;;4992792;28;20205;-76
2020/12/14 08:00:09;;;;;;;7.63;1.90;;;9.90;99.90;;;;;;4991748;28;20196;-76
2020/12/14 08:02:35;;;;;;;5.03;2.23;;;9.80;99.90;;;;;;4992799;28;20263;-76
2020/12/14 08:05:04;;;;;;;4.40;1.77;;;9.90;99.90;;;;;;4992161;28;20205;-75
2020/12/14 08:07:37;;;;;;;4.80;1.80;;;9.80;99.90;;;;;;4991616;28;20209;-75
2020/12/14 08:10:04;;;;;;;4.47;1.50;;;9.90;99.90;;;;;;4987212;28;20680;-75
2020/12/14 08:12:31;;;;;;;5.73;1.83;;;9.90;99.90;;;;;;4988879;28;20209;-76
2020/12/14 08:14:59;;;;;;;6.97;1.87;;;9.90;99.90;;;;;;4991086;28;20260;-76
2020/12/14 08:17:27;;;;;;;7.70;1.67;;;9.90;99.90;;;;;;4991641;28;20209;-76
2020/12/14 08:19:53;;;;;;;5.87;1.83;;;9.80;99.90;;;;;;4991424;28;20232;-75
2020/12/14 08:22:20;;;;;;;6.20;1.87;;;9.90;99.90;;;;;;4990924;28;20224;-75
2020/12/14 08:24:55;;;;;;;7.87;1.93;;;9.90;99.90;;;;;;4993921;28;20205;-75
2020/12/14 08:27:36;;;;;;;10.00;2.33;;;9.90;99.90;;;;;;4990131;28;20200;-76
2020/12/14 08:30:06;;;;;;;5.43;2.30;;;9.90;99.90;;;;;;4991512;28;20575;-75
2020/12/14 08:32:32;;;;;;;6.17;1.73;;;9.90;99.90;;;;;;4992119;28;20247;-75
2020/12/14 08:34:59;;;;;;;3.73;2.50;;;10.00;99.90;;;;;;4990697;28;20263;-76
2020/12/14 08:37:26;;;;;;;3.57;1.70;;;9.90;99.90;;;;;;4991721;28;20209;-75
2020/12/14 08:39:59;;;;;;;2.93;1.80;;;10.00;99.90;;;;;;4988653;28;20311;-75
2020/12/14 08:42:29;;;;;;;4.37;1.80;;;9.90;99.90;;;;;;4988670;28;20669;-76
2020/12/14 08:45:08;;;;;;;6.60;2.27;;;10.00;99.90;;;;;;4989804;28;20213;-75
2020/12/14 08:47:38;;;;;;;4.50;1.90;;;10.00;99.90;;;;;;4991340;28;20648;-76
2020/12/14 08:50:07;;;;;;;4.70;1.37;;;10.00;99.90;;;;;;4991041;28;20256;-76
2020/12/14 08:52:34;;;;;;;5.33;1.80;;;9.90;99.90;;;;;;4991463;28;20209;-76
2020/12/14 08:55:00;;;;;;;6.43;1.93;;;10.00;99.90;;;;;;4991547;28;20267;-77
2020/12/14 08:57:28;;;;;;;4.67;1.50;;;9.90;99.90;;;;;;4991837;28;20216;-75
2020/12/14 09:00:02;;;;;;;4.60;1.50;;;9.90;99.90;;;;;;4991632;28;20287;-75
2020/12/14 09:02:29;;;;;;;5.50;1.97;;;10.00;99.90;;;;;;4991110;28;20217;-76
2020/12/14 09:04:57;;;;;;;6.03;2.47;;;10.00;99.90;;;;;;4991161;28;20255;-75
2020/12/14 09:07:24;;;;;;;6.80;2.00;;;10.00;99.90;;;;;;4986716;28;20724;-76
2020/12/14 09:09:51;;;;;;;4.90;1.60;;;10.00;99.90;;;;;;4990184;28;20255;-77
2020/12/14 09:12:18;;;;;;;4.77;1.73;;;10.00;99.90;;;;;;4991063;28;20221;-76
2020/12/14 09:14:45;;;;;;;2.70;1.23;;;10.00;99.90;;;;;;4989927;28;20236;-76
2020/12/14 09:17:16;;;;;;;5.10;1.80;;;10.00;99.90;;;;;;4990085;28;20284;-75
2020/12/14 09:19:51;;;;;;;3.80;1.77;;;10.00;99.90;;;;;;4989951;28;20291;-76
2020/12/14 09:22:21;;;;;;;6.23;2.03;;;10.00;99.90;;;;;;4988537;28;20667;-75
2020/12/14 09:24:47;;;;;;;4.73;1.43;;;10.10;99.90;;;;;;4989724;28;20252;-76
2020/12/14 09:27:14;;;;;;;4.33;1.53;;;10.10;99.90;;;;;;4988981;28;20205;-77
2020/12/14 09:29:42;;;;;;;7.13;2.10;;;10.10;99.90;;;;;;4990016;28;20209;-76
2020/12/14 09:32:10;;;;;;;5.23;1.40;;;10.10;99.90;;;;;;4984381;28;20213;-77
2020/12/14 09:34:37;;;;;;;8.27;1.60;;;10.10;99.90;;;;;;4988908;28;20208;-78
2020/12/14 09:37:05;;;;;;;9.17;1.80;;;10.10;99.90;;;;;;4986942;28;20259;-78
2020/12/14 09:39:32;;;;;;;6.23;1.60;;;10.10;99.90;;;;;;4990239;28;20680;-78
2020/12/14 09:42:00;;;;;;;5.53;2.43;;;10.00;99.90;;;;;;4983320;28;20209;-78
2020/12/14 09:44:28;;;;;;;4.80;2.00;;;10.00;99.90;;;;;;4990875;28;20248;-77
2020/12/14 09:46:55;;;;;;;3.27;1.73;;;9.90;99.90;;;;;;4990693;28;20581;-77
2020/12/14 09:49:22;;;;;;;6.93;2.27;;;10.00;99.90;;;;;;4987991;28;20647;-78
2020/12/14 09:51:49;;;;;;;4.70;1.80;;;10.00;99.90;;;;;;4991153;28;20209;-78
2020/12/14 09:54:17;;;;;;;5.83;2.77;;;10.10;99.90;;;;;;4989939;28;20213;-78
2020/12/14 09:56:43;;;;;;;4.03;1.80;;;10.10;99.90;;;;;;4991027;28;20204;-77
2020/12/14 09:59:10;;;;;;;5.80;1.17;;;10.10;99.90;;;;;;4990236;28;20228;-77
2020/12/14 10:01:36;;;;;;;3.50;1.57;;;10.00;99.90;;;;;;4990968;28;20209;-77
2020/12/14 10:04:03;;;;;;;4.53;1.23;;;10.10;99.90;;;;;;4990727;28;20208;-77
2020/12/14 10:06:30;;;;;;;5.87;1.67;;;10.10;99.90;;;;;;4990390;28;20213;-77
2020/12/14 10:08:56;;;;;;;3.13;1.20;;;10.10;99.90;;;;;;4990625;28;20212;-77
2020/12/14 10:11:25;;;;;;;4.70;1.90;;;10.10;99.90;;;;;;4990696;28;20252;-77
2020/12/14 10:13:51;;;;;;;2.63;1.60;;;10.30;99.90;;;;;;4988786;28;20213;-78
2020/12/14 10:16:18;;;;;;;4.83;2.17;;;10.20;99.90;;;;;;4990615;28;20677;-78
2020/12/14 10:18:45;;;;;;;5.50;2.57;;;10.20;99.90;;;;;;4990561;28;20262;-78
2020/12/14 10:21:12;;;;;;;4.43;1.47;;;10.30;99.90;;;;;;4990255;28;20209;-78
2020/12/14 10:23:38;;;;;;;4.53;2.33;;;10.30;99.90;;;;;;4990368;28;20247;-78
2020/12/14 10:26:05;;;;;;;6.83;2.50;;;10.30;99.90;;;;;;4990373;28;20633;-78
2020/12/14 10:28:33;;;;;;;3.27;2.00;;;10.30;99.90;;;;;;4990256;28;20255;-77
2020/12/14 10:30:59;;;;;;;4.07;2.30;;;10.20;99.90;;;;;;4992544;28;20209;-77
2020/12/14 10:33:28;;;;;;;5.13;2.47;;;10.20;99.90;;;;;;4994028;28;20201;-76
2020/12/14 10:35:55;;;;;;;4.70;2.27;;;10.20;99.90;;;;;;4994255;28;20211;-77
2020/12/14 10:38:22;;;;;;;5.27;3.30;;;10.30;99.90;;;;;;4994395;28;20228;-77
2020/12/14 10:40:49;;;;;;;4.63;2.70;;;10.30;99.90;;;;;;4994372;28;20232;-77
2020/12/14 10:43:15;;;;;;;6.80;2.17;;;10.40;99.90;;;;;;4993665;28;20589;-77
2020/12/14 10:45:43;;;;;;;6.03;2.53;;;10.40;99.90;;;;;;4994233;28;20205;-78
2020/12/14 10:48:09;;;;;;;5.90;3.10;;;10.40;99.90;;;;;;4993244;28;20581;-77
2020/12/14 10:50:38;;;;;;;3.47;2.57;;;10.40;99.90;;;;;;4994079;28;20656;-77
2020/12/14 10:53:05;;;;;;;6.67;2.67;;;10.40;99.90;;;;;;4993183;28;20211;-78
2020/12/14 10:55:32;;;;;;;4.00;3.17;;;10.40;99.90;;;;;;4993703;28;20205;-79
2020/12/14 10:57:58;;;;;;;4.63;2.33;;;10.30;99.90;;;;;;4993115;28;20260;-78
2020/12/14 11:00:24;;;;;;;6.30;2.53;;;10.30;99.90;;;;;;4994204;28;20209;-78
2020/12/14 11:02:52;;;;;;;4.17;3.10;;;10.20;99.90;;;;;;4993477;28;20212;-78
2020/12/14 11:05:18;;;;;;;5.33;2.90;;;10.30;99.90;;;;;;4993440;28;20639;-76
2020/12/14 11:07:45;;;;;;;6.20;3.43;;;10.20;99.90;;;;;;4992832;28;20731;-79
2020/12/14 11:10:11;;;;;;;7.00;3.47;;;10.20;99.90;;;;;;4993200;28;20208;-77
2020/12/14 11:12:38;;;;;;;5.97;3.97;;;10.40;99.90;;;;;;4992472;28;20209;-77
2020/12/14 11:15:07;;;;;;;4.90;3.57;;;10.30;99.90;;;;;;4988198;28;20752;-77
2020/12/14 11:17:34;;;;;;;7.40;3.33;;;10.30;99.90;;;;;;4990957;28;20664;-78
2020/12/14 11:20:03;;;;;;;6.80;3.40;;;10.30;99.90;;;;;;4988405;28;20279;-77
2020/12/14 11:22:30;;;;;;;6.03;2.97;;;10.30;99.90;;;;;;4991629;28;20221;-78
2020/12/14 11:24:56;;;;;;;6.50;4.13;;;10.40;99.90;;;;;;4992995;28;20208;-76
2020/12/14 11:27:23;;;;;;;7.73;4.07;;;10.40;99.90;;;;;;4993477;28;20201;-76
2020/12/14 11:29:49;;;;;;;8.23;3.70;;;10.50;99.90;;;;;;4993769;28;20638;-79
2020/12/14 11:32:15;;;;;;;5.73;3.70;;;10.50;99.90;;;;;;4991257;28;20786;-78
2020/12/14 11:34:42;;;;;;;4.50;3.67;;;10.60;99.90;;;;;;4992670;28;20263;-79
2020/12/14 11:37:09;;;;;;;5.07;3.63;;;10.70;99.90;;;;;;4991224;28;20268;-78
2020/12/14 11:39:36;;;;;;;4.77;3.77;;;10.70;99.90;;;;;;4993122;28;20295;-75
2020/12/14 11:42:03;;;;;;;4.50;4.10;;;10.80;99.90;;;;;;4991494;28;20251;-79
2020/12/14 11:44:29;;;;;;;7.13;4.07;;;11.00;99.90;;;;;;4993080;28;20205;-78
2020/12/14 11:46:56;;;;;;;5.63;3.47;;;11.00;99.90;;;;;;4992289;28;20570;-76
2020/12/14 11:49:22;;;;;;;7.47;4.53;;;11.10;99.90;;;;;;4992639;28;20236;-76
2020/12/14 11:51:49;;;;;;;7.30;3.97;;;11.20;99.90;;;;;;4992619;28;20641;-79
2020/12/14 11:54:17;;;;;;;6.57;3.50;;;11.30;99.90;;;;;;4992073;28;20209;-75
2020/12/14 11:56:45;;;;;;;6.97;3.57;;;11.20;99.90;;;;;;4989688;28;20672;-78
2020/12/14 11:59:11;;;;;;;7.40;3.93;;;11.20;99.90;;;;;;4992321;28;20236;-78
2020/12/14 12:01:38;;;;;;;5.53;3.70;;;11.40;99.90;;;;;;4991873;28;20209;-76
2020/12/14 12:04:04;;;;;;;5.47;3.30;;;11.40;99.90;;;;;;4990634;28;20200;-77
2020/12/14 12:06:31;;;;;;;7.80;3.70;;;11.40;99.90;;;;;;4989908;28;20205;-78
2020/12/14 12:08:57;;;;;;;6.50;3.17;;;11.40;99.90;;;;;;4987585;28;20216;-78
2020/12/14 12:11:25;;;;;;;5.07;3.93;;;11.30;99.90;;;;;;4992665;28;20261;-78
2020/12/14 12:13:51;;;;;;;8.43;3.40;;;11.40;99.90;;;;;;4992715;28;20259;-78
2020/12/14 12:16:18;;;;;;;4.67;3.70;;;11.30;99.90;;;;;;4992037;28;20660;-78
2020/12/14 12:18:48;;;;;;;8.57;3.73;;;11.40;99.90;;;;;;4984206;28;20264;-77
2020/12/14 12:21:15;;;;;;;5.67;3.87;;;11.40;99.90;;;;;;4992658;28;20247;-80
2020/12/14 12:23:41;;;;;;;9.43;4.10;;;11.40;99.90;;;;;;4993772;28;20676;-80
2020/12/14 12:26:08;;;;;;;5.07;3.93;;;11.50;99.90;;;;;;4989975;28;20259;-77
2020/12/14 12:28:35;;;;;;;6.53;3.30;;;11.40;99.90;;;;;;4991685;28;20205;-77
2020/12/14 12:31:02;;;;;;;6.20;4.17;;;11.30;99.90;;;;;;4990186;28;20259;-77
2020/12/14 12:33:28;;;;;;;9.10;4.53;;;11.30;99.90;;;;;;4991336;28;20236;-78
2020/12/14 12:35:55;;;;;;;7.97;4.43;;;11.30;99.90;;;;;;4994917;28;20204;-78
2020/12/14 12:38:21;;;;;;;6.87;3.87;;;11.30;99.90;;;;;;4990766;28;20727;-76
2020/12/14 12:40:48;;;;;;;10.37;4.13;;;11.30;99.90;;;;;;4987681;28;20209;-75
2020/12/14 12:43:14;;;;;;;8.27;3.63;;;11.30;99.90;;;;;;4991093;28;20688;-77
2020/12/14 12:45:42;;;;;;;4.27;3.43;;;11.30;99.90;;;;;;4991642;28;20205;-77
2020/12/14 12:48:08;;;;;;;6.10;4.53;;;11.30;99.90;;;;;;4989393;28;20684;-78
2020/12/14 12:50:52;;;;;;;4.73;3.67;;;11.30;99.90;;;;;;4985387;28;20201;-76
2020/12/14 12:53:19;;;;;;;6.47;4.20;;;11.30;99.90;;;;;;4984011;28;20208;-76
2020/12/14 12:55:45;;;;;;;12.23;4.20;;;11.30;99.90;;;;;;4991695;28;20267;-78